Rosita, Texas
Current Conditions -  °F | °C
As of 9:56 AM on Sunday 25 Jan 2015 (Local Time) from KNOG Reporting Station
Clear Clear  
Wind Chill: 62°   Ceiling: Unl
Heat Index: 62°   Visibility: 10mi
Dew Point: 41°   Wind: 7mph
Humidity: 46%   Direction: NA
Pressure: 30.12"   Gusts: NA
Location:  27.8895°N, 98.3467°W
Report Text: KNOG 251556Z AUTO VRB06KT 10SM CLR 17/05 A3012 RMK AO2 SLP181 T01670050 $
Loading
Personal Weather Stations






























Interactive Weather Map New forecast layout! Learn more

10-Day Weather Forecast

Advertisements
Track Severe Weather on mobile